sensor_id;sensor_type;location;lat;lon;timestamp;temperature;humidity
23827;DHT22;12094;50.822;4.376;2023-02-24T00:02:04;7.70;99.90
23827;DHT22;12094;50.822;4.376;2023-02-24T00:04:35;7.70;99.90
23827;DHT22;12094;50.822;4.376;2023-02-24T00:07:09;7.70;99.90
23827;DHT22;12094;50.822;4.376;2023-02-24T00:09:38;7.70;99.90
23827;DHT22;12094;50.822;4.376;2023-02-24T00:12:10;7.70;99.90
23827;DHT22;12094;50.822;4.376;2023-02-24T00:14:46;7.70;99.90
23827;DHT22;12094;50.822;4.376;2023-02-24T00:17:13;7.60;99.90
23827;DHT22;12094;50.822;4.376;2023-02-24T00:19:42;7.60;99.90
23827;DHT22;12094;50.822;4.376;2023-02-24T00:22:13;7.50;99.90
23827;DHT22;12094;50.822;4.376;2023-02-24T00:24:43;7.60;99.90
23827;DHT22;12094;50.822;4.376;2023-02-24T00:27:13;7.70;99.90
23827;DHT22;12094;50.822;4.376;2023-02-24T00:29:43;7.70;99.90
23827;DHT22;12094;50.822;4.376;2023-02-24T00:32:10;7.60;99.90
23827;DHT22;12094;50.822;4.376;2023-02-24T00:34:41;7.60;99.90
23827;DHT22;12094;50.822;4.376;2023-02-24T00:37:15;7.60;99.90
23827;DHT22;12094;50.822;4.376;2023-02-24T00:39:45;7.50;99.90
23827;DHT22;12094;50.822;4.376;2023-02-24T00:42:12;7.60;99.90
23827;DHT22;12094;50.822;4.376;2023-02-24T00:44:45;7.50;99.90
23827;DHT22;12094;50.822;4.376;2023-02-24T00:47:16;7.50;99.90
23827;DHT22;12094;50.822;4.376;2023-02-24T00:49:47;7.40;99.90
23827;DHT22;12094;50.822;4.376;2023-02-24T00:52:18;7.40;99.90
23827;DHT22;12094;50.822;4.376;2023-02-24T00:54:50;7.40;99.90
23827;DHT22;12094;50.822;4.376;2023-02-24T00:57:23;7.40;99.90
23827;DHT22;12094;50.822;4.376;2023-02-24T00:59:54;7.50;99.90
23827;DHT22;12094;50.822;4.376;2023-02-24T01:02:24;7.50;99.90
23827;DHT22;12094;50.822;4.376;2023-02-24T01:04:58;7.40;99.90
23827;DHT22;12094;50.822;4.376;2023-02-24T01:07:36;7.40;99.90
23827;DHT22;12094;50.822;4.376;2023-02-24T01:10:05;7.40;99.90
23827;DHT22;12094;50.822;4.376;2023-02-24T01:12:36;7.50;99.90
23827;DHT22;12094;50.822;4.376;2023-02-24T01:15:18;7.40;99.90
23827;DHT22;12094;50.822;4.376;2023-02-24T01:17:49;7.40;99.90
23827;DHT22;12094;50.822;4.376;2023-02-24T01:20:16;7.50;99.90
23827;DHT22;12094;50.822;4.376;2023-02-24T01:22:47;7.50;99.90
23827;DHT22;12094;50.822;4.376;2023-02-24T01:25:15;7.40;99.90
23827;DHT22;12094;50.822;4.376;2023-02-24T01:27:43;7.50;99.90
23827;DHT22;12094;50.822;4.376;2023-02-24T01:30:11;7.50;99.90
23827;DHT22;12094;50.822;4.376;2023-02-24T01:32:43;7.50;99.90
23827;DHT22;12094;50.822;4.376;2023-02-24T01:35:10;7.60;99.90
23827;DHT22;12094;50.822;4.376;2023-02-24T01:37:40;7.60;99.90
23827;DHT22;12094;50.822;4.376;2023-02-24T01:40:11;7.60;99.90
23827;DHT22;12094;50.822;4.376;2023-02-24T01:42:46;7.60;99.90
23827;DHT22;12094;50.822;4.376;2023-02-24T01:45:20;7.50;99.90
23827;DHT22;12094;50.822;4.376;2023-02-24T01:47:49;7.50;99.90
23827;DHT22;12094;50.822;4.376;2023-02-24T01:50:19;7.50;99.90
23827;DHT22;12094;50.822;4.376;2023-02-24T01:52:54;7.40;99.90
23827;DHT22;12094;50.822;4.376;2023-02-24T01:55:25;7.40;99.90
23827;DHT22;12094;50.822;4.376;2023-02-24T01:57:59;7.50;99.90
23827;DHT22;12094;50.822;4.376;2023-02-24T02:00:27;7.50;99.90
23827;DHT22;12094;50.822;4.376;2023-02-24T02:03:17;7.50;99.90
23827;DHT22;12094;50.822;4.376;2023-02-24T02:05:49;7.50;99.90
23827;DHT22;12094;50.822;4.376;2023-02-24T02:08:21;7.50;99.90
23827;DHT22;12094;50.822;4.376;2023-02-24T02:11:15;7.50;99.90
23827;DHT22;12094;50.822;4.376;2023-02-24T02:13:52;7.60;99.90
23827;DHT22;12094;50.822;4.376;2023-02-24T02:16:39;7.50;99.90
23827;DHT22;12094;50.822;4.376;2023-02-24T02:19:24;7.50;99.90
23827;DHT22;12094;50.822;4.376;2023-02-24T02:28:34;7.40;99.90
23827;DHT22;12094;50.822;4.376;2023-02-24T02:43:47;7.40;99.90
23827;DHT22;12094;50.822;4.376;2023-02-24T02:49:10;7.40;99.90
23827;DHT22;12094;50.822;4.376;2023-02-24T02:51:46;7.30;99.90
23827;DHT22;12094;50.822;4.376;2023-02-24T02:54:28;7.30;99.90
23827;DHT22;12094;50.822;4.376;2023-02-24T02:57:30;7.30;99.90
23827;DHT22;12094;50.822;4.376;2023-02-24T03:00:22;7.30;99.90
23827;DHT22;12094;50.822;4.376;2023-02-24T03:03:06;7.20;99.90
23827;DHT22;12094;50.822;4.376;2023-02-24T03:05:44;7.20;99.90
23827;DHT22;12094;50.822;4.376;2023-02-24T03:08:22;7.20;99.90
23827;DHT22;12094;50.822;4.376;2023-02-24T03:10:53;7.20;99.90
23827;DHT22;12094;50.822;4.376;2023-02-24T03:13:26;7.20;99.90
23827;DHT22;12094;50.822;4.376;2023-02-24T03:15:58;7.30;99.90
23827;DHT22;12094;50.822;4.376;2023-02-24T03:18:35;7.20;99.90
23827;DHT22;12094;50.822;4.376;2023-02-24T03:21:17;7.20;99.90
23827;DHT22;12094;50.822;4.376;2023-02-24T03:23:50;7.20;99.90
23827;DHT22;12094;50.822;4.376;2023-02-24T03:26:42;7.10;99.90
23827;DHT22;12094;50.822;4.376;2023-02-24T03:29:26;7.10;99.90
23827;DHT22;12094;50.822;4.376;2023-02-24T03:32:01;7.20;99.90
23827;DHT22;12094;50.822;4.376;2023-02-24T03:37:05;7.20;99.90
23827;DHT22;12094;50.822;4.376;2023-02-24T03:39:32;7.10;99.90
23827;DHT22;12094;50.822;4.376;2023-02-24T03:42:15;7.10;99.90
23827;DHT22;12094;50.822;4.376;2023-02-24T03:44:45;7.20;99.90
23827;DHT22;12094;50.822;4.376;2023-02-24T03:47:13;7.20;99.90
23827;DHT22;12094;50.822;4.376;2023-02-24T03:49:45;7.10;99.90
23827;DHT22;12094;50.822;4.376;2023-02-24T04:01:22;7.10;99.90
23827;DHT22;12094;50.822;4.376;2023-02-24T04:04:02;7.10;99.90
23827;DHT22;12094;50.822;4.376;2023-02-24T04:09:43;7.20;99.90
23827;DHT22;12094;50.822;4.376;2023-02-24T04:12:54;7.20;99.90
23827;DHT22;12094;50.822;4.376;2023-02-24T04:15:32;7.30;99.90
23827;DHT22;12094;50.822;4.376;2023-02-24T04:18:26;7.30;99.90
23827;DHT22;12094;50.822;4.376;2023-02-24T04:20:59;7.30;99.90
23827;DHT22;12094;50.822;4.376;2023-02-24T04:23:32;7.20;99.90
23827;DHT22;12094;50.822;4.376;2023-02-24T04:26:00;7.20;99.90
23827;DHT22;12094;50.822;4.376;2023-02-24T04:28:30;7.20;99.90
23827;DHT22;12094;50.822;4.376;2023-02-24T04:31:02;7.20;99.90
23827;DHT22;12094;50.822;4.376;2023-02-24T04:33:35;7.20;99.90
23827;DHT22;12094;50.822;4.376;2023-02-24T04:36:31;7.10;99.90
23827;DHT22;12094;50.822;4.376;2023-02-24T04:39:01;7.20;99.90
23827;DHT22;12094;50.822;4.376;2023-02-24T04:41:34;7.20;99.90
23827;DHT22;12094;50.822;4.376;2023-02-24T04:44:02;7.10;99.90
23827;DHT22;12094;50.822;4.376;2023-02-24T04:46:31;7.10;99.90
23827;DHT22;12094;50.822;4.376;2023-02-24T04:48:59;7.20;99.90
23827;DHT22;12094;50.822;4.376;2023-02-24T04:51:28;7.10;99.90
23827;DHT22;12094;50.822;4.376;2023-02-24T04:53:58;7.10;99.90
23827;DHT22;12094;50.822;4.376;2023-02-24T04:56:29;7.10;99.90
23827;DHT22;12094;50.822;4.376;2023-02-24T04:58:56;7.10;99.90
23827;DHT22;12094;50.822;4.376;2023-02-24T05:01:25;7.00;99.90
23827;DHT22;12094;50.822;4.376;2023-02-24T05:03:53;7.10;99.90
23827;DHT22;12094;50.822;4.376;2023-02-24T05:06:27;7.10;99.90
23827;DHT22;12094;50.822;4.376;2023-02-24T05:09:20;7.10;99.90
23827;DHT22;12094;50.822;4.376;2023-02-24T05:11:49;7.10;99.90
23827;DHT22;12094;50.822;4.376;2023-02-24T05:14:18;7.10;99.90
23827;DHT22;12094;50.822;4.376;2023-02-24T05:16:51;6.90;99.90
23827;DHT22;12094;50.822;4.376;2023-02-24T05:19:26;6.90;99.90
23827;DHT22;12094;50.822;4.376;2023-02-24T05:22:28;6.90;99.90
23827;DHT22;12094;50.822;4.376;2023-02-24T05:24:56;6.80;99.90
23827;DHT22;12094;50.822;4.376;2023-02-24T05:27:23;6.90;99.90
23827;DHT22;12094;50.822;4.376;2023-02-24T05:29:50;6.90;99.90
23827;DHT22;12094;50.822;4.376;2023-02-24T05:32:21;6.90;99.90
23827;DHT22;12094;50.822;4.376;2023-02-24T05:35:16;7.00;99.90
23827;DHT22;12094;50.822;4.376;2023-02-24T05:37:47;7.00;99.90
23827;DHT22;12094;50.822;4.376;2023-02-24T05:40:14;6.90;99.90
23827;DHT22;12094;50.822;4.376;2023-02-24T05:42:41;6.90;99.90
23827;DHT22;12094;50.822;4.376;2023-02-24T05:45:11;7.00;99.90
23827;DHT22;12094;50.822;4.376;2023-02-24T05:47:38;6.90;99.90
23827;DHT22;12094;50.822;4.376;2023-02-24T05:50:06;6.70;99.90
23827;DHT22;12094;50.822;4.376;2023-02-24T05:52:35;6.70;99.90
23827;DHT22;12094;50.822;4.376;2023-02-24T05:55:06;6.60;99.90
23827;DHT22;12094;50.822;4.376;2023-02-24T05:57:39;6.60;99.90
23827;DHT22;12094;50.822;4.376;2023-02-24T06:00:10;6.60;99.90
23827;DHT22;12094;50.822;4.376;2023-02-24T06:02:43;6.60;99.90
23827;DHT22;12094;50.822;4.376;2023-02-24T06:09:10;6.70;99.90
23827;DHT22;12094;50.822;4.376;2023-02-24T06:11:42;6.70;99.90
23827;DHT22;12094;50.822;4.376;2023-02-24T06:18:11;6.80;99.90
23827;DHT22;12094;50.822;4.376;2023-02-24T06:20:39;6.70;99.90
23827;DHT22;12094;50.822;4.376;2023-02-24T06:23:06;6.70;99.90
23827;DHT22;12094;50.822;4.376;2023-02-24T06:25:34;6.60;99.90
23827;DHT22;12094;50.822;4.376;2023-02-24T06:28:04;6.50;99.90
23827;DHT22;12094;50.822;4.376;2023-02-24T06:30:32;6.40;99.90
23827;DHT22;12094;50.822;4.376;2023-02-24T06:33:00;6.40;99.90
23827;DHT22;12094;50.822;4.376;2023-02-24T06:35:28;6.40;99.90
23827;DHT22;12094;50.822;4.376;2023-02-24T06:37:55;6.40;99.90
23827;DHT22;12094;50.822;4.376;2023-02-24T06:40:25;6.40;99.90
23827;DHT22;12094;50.822;4.376;2023-02-24T06:42:53;6.50;99.90
23827;DHT22;12094;50.822;4.376;2023-02-24T06:45:22;6.50;99.90
23827;DHT22;12094;50.822;4.376;2023-02-24T06:47:49;6.40;99.90
23827;DHT22;12094;50.822;4.376;2023-02-24T06:50:19;6.40;99.90
23827;DHT22;12094;50.822;4.376;2023-02-24T06:52:48;6.40;99.90
23827;DHT22;12094;50.822;4.376;2023-02-24T06:55:16;6.30;99.90
23827;DHT22;12094;50.822;4.376;2023-02-24T06:57:59;6.30;99.90
23827;DHT22;12094;50.822;4.376;2023-02-24T07:00:32;6.40;99.90
23827;DHT22;12094;50.822;4.376;2023-02-24T07:03:08;6.40;99.90
23827;DHT22;12094;50.822;4.376;2023-02-24T07:05:47;6.40;99.90
23827;DHT22;12094;50.822;4.376;2023-02-24T07:08:18;6.40;99.90
23827;DHT22;12094;50.822;4.376;2023-02-24T07:10:54;6.30;99.90
23827;DHT22;12094;50.822;4.376;2023-02-24T07:13:25;6.30;99.90
23827;DHT22;12094;50.822;4.376;2023-02-24T07:15:55;6.30;99.90
23827;DHT22;12094;50.822;4.376;2023-02-24T07:18:25;6.30;99.90
23827;DHT22;12094;50.822;4.376;2023-02-24T07:20:53;6.20;99.90
23827;DHT22;12094;50.822;4.376;2023-02-24T07:23:21;6.20;99.90
23827;DHT22;12094;50.822;4.376;2023-02-24T07:25:48;6.30;99.90
23827;DHT22;12094;50.822;4.376;2023-02-24T07:28:15;6.30;99.90
23827;DHT22;12094;50.822;4.376;2023-02-24T07:30:45;6.40;99.90
23827;DHT22;12094;50.822;4.376;2023-02-24T07:33:13;6.30;99.90
23827;DHT22;12094;50.822;4.376;2023-02-24T07:35:40;6.30;99.90
23827;DHT22;12094;50.822;4.376;2023-02-24T07:38:08;6.20;99.90
23827;DHT22;12094;50.822;4.376;2023-02-24T07:40:36;6.20;99.90
23827;DHT22;12094;50.822;4.376;2023-02-24T07:43:09;6.20;99.90
23827;DHT22;12094;50.822;4.376;2023-02-24T07:45:39;6.30;99.90
23827;DHT22;12094;50.822;4.376;2023-02-24T07:48:10;6.30;99.90
23827;DHT22;12094;50.822;4.376;2023-02-24T07:50:42;6.40;99.90
23827;DHT22;12094;50.822;4.376;2023-02-24T07:53:09;6.40;99.90
23827;DHT22;12094;50.822;4.376;2023-02-24T07:55:38;6.40;99.90
23827;DHT22;12094;50.822;4.376;2023-02-24T07:58:05;6.30;99.90
23827;DHT22;12094;50.822;4.376;2023-02-24T08:00:35;6.20;99.90
23827;DHT22;12094;50.822;4.376;2023-02-24T08:03:26;6.20;99.90
23827;DHT22;12094;50.822;4.376;2023-02-24T08:05:57;6.20;99.90
23827;DHT22;12094;50.822;4.376;2023-02-24T08:08:39;6.40;99.90
23827;DHT22;12094;50.822;4.376;2023-02-24T08:11:29;6.40;99.90
23827;DHT22;12094;50.822;4.376;2023-02-24T08:14:04;6.20;99.90
23827;DHT22;12094;50.822;4.376;2023-02-24T08:16:44;6.30;99.90
23827;DHT22;12094;50.822;4.376;2023-02-24T08:19:15;6.30;99.90
23827;DHT22;12094;50.822;4.376;2023-02-24T08:21:49;6.30;99.90
23827;DHT22;12094;50.822;4.376;2023-02-24T08:24:20;6.40;99.90
23827;DHT22;12094;50.822;4.376;2023-02-24T08:26:54;6.60;99.90
23827;DHT22;12094;50.822;4.376;2023-02-24T08:29:35;6.70;99.90
23827;DHT22;12094;50.822;4.376;2023-02-24T08:32:30;6.70;99.90
23827;DHT22;12094;50.822;4.376;2023-02-24T08:35:20;6.80;99.90
23827;DHT22;12094;50.822;4.376;2023-02-24T08:37:51;6.90;99.90
23827;DHT22;12094;50.822;4.376;2023-02-24T08:40:26;7.00;99.90
23827;DHT22;12094;50.822;4.376;2023-02-24T08:43:11;6.90;99.90
23827;DHT22;12094;50.822;4.376;2023-02-24T08:46:28;6.90;99.90
23827;DHT22;12094;50.822;4.376;2023-02-24T08:49:03;6.80;99.90
23827;DHT22;12094;50.822;4.376;2023-02-24T08:51:38;6.80;99.90
23827;DHT22;12094;50.822;4.376;2023-02-24T08:54:17;6.80;99.90
23827;DHT22;12094;50.822;4.376;2023-02-24T08:56:56;6.80;99.90
23827;DHT22;12094;50.822;4.376;2023-02-24T08:59:52;6.90;99.90
23827;DHT22;12094;50.822;4.376;2023-02-24T09:02:26;6.80;99.90
23827;DHT22;12094;50.822;4.376;2023-02-24T09:05:06;6.90;99.90
23827;DHT22;12094;50.822;4.376;2023-02-24T09:07:45;7.00;99.90
23827;DHT22;12094;50.822;4.376;2023-02-24T09:10:21;7.10;99.90
23827;DHT22;12094;50.822;4.376;2023-02-24T09:12:49;7.10;99.90
23827;DHT22;12094;50.822;4.376;2023-02-24T09:15:19;7.10;99.90
23827;DHT22;12094;50.822;4.376;2023-02-24T09:17:50;7.20;99.90
23827;DHT22;12094;50.822;4.376;2023-02-24T09:20:34;7.30;99.90
23827;DHT22;12094;50.822;4.376;2023-02-24T09:23:20;7.30;99.90
23827;DHT22;12094;50.822;4.376;2023-02-24T09:25:57;7.10;99.90
23827;DHT22;12094;50.822;4.376;2023-02-24T09:28:26;7.10;99.90
23827;DHT22;12094;50.822;4.376;2023-02-24T09:30:58;7.10;99.90
23827;DHT22;12094;50.822;4.376;2023-02-24T09:33:27;7.30;99.90
23827;DHT22;12094;50.822;4.376;2023-02-24T09:36:07;7.10;99.90
23827;DHT22;12094;50.822;4.376;2023-02-24T09:38:58;7.10;99.90
23827;DHT22;12094;50.822;4.376;2023-02-24T09:41:43;7.50;99.90
23827;DHT22;12094;50.822;4.376;2023-02-24T09:44:45;7.60;99.90
23827;DHT22;12094;50.822;4.376;2023-02-24T09:53:12;8.10;99.90
23827;DHT22;12094;50.822;4.376;2023-02-24T09:55:56;7.90;99.90
23827;DHT22;12094;50.822;4.376;2023-02-24T10:01:47;8.10;99.90
23827;DHT22;12094;50.822;4.376;2023-02-24T10:07:09;7.80;99.90
23827;DHT22;12094;50.822;4.376;2023-02-24T10:10:25;7.70;99.90
23827;DHT22;12094;50.822;4.376;2023-02-24T10:13:11;7.70;99.90
23827;DHT22;12094;50.822;4.376;2023-02-24T10:15:45;7.80;99.90
23827;DHT22;12094;50.822;4.376;2023-02-24T10:18:46;7.80;99.90
23827;DHT22;12094;50.822;4.376;2023-02-24T10:21:57;8.10;99.90
23827;DHT22;12094;50.822;4.376;2023-02-24T10:24:42;8.20;99.90
23827;DHT22;12094;50.822;4.376;2023-02-24T10:27:21;8.20;99.90
23827;DHT22;12094;50.822;4.376;2023-02-24T10:33:41;8.10;99.90
23827;DHT22;12094;50.822;4.376;2023-02-24T10:36:23;8.10;99.90
23827;DHT22;12094;50.822;4.376;2023-02-24T10:39:16;8.00;99.90
23827;DHT22;12094;50.822;4.376;2023-02-24T10:42:04;8.00;99.90
23827;DHT22;12094;50.822;4.376;2023-02-24T10:45:23;7.90;99.90
23827;DHT22;12094;50.822;4.376;2023-02-24T10:48:05;8.00;99.90
23827;DHT22;12094;50.822;4.376;2023-02-24T10:51:14;8.10;99.90
23827;DHT22;12094;50.822;4.376;2023-02-24T10:57:15;8.00;99.90
23827;DHT22;12094;50.822;4.376;2023-02-24T11:00:42;8.10;99.90
23827;DHT22;12094;50.822;4.376;2023-02-24T11:03:29;8.10;99.90
23827;DHT22;12094;50.822;4.376;2023-02-24T11:06:24;8.20;99.90
23827;DHT22;12094;50.822;4.376;2023-02-24T11:09:28;8.30;99.90
23827;DHT22;12094;50.822;4.376;2023-02-24T11:12:30;8.10;99.90
23827;DHT22;12094;50.822;4.376;2023-02-24T11:15:52;7.90;99.90
23827;DHT22;12094;50.822;4.376;2023-02-24T11:18:51;7.80;99.90
23827;DHT22;12094;50.822;4.376;2023-02-24T11:21:37;7.70;99.90
23827;DHT22;12094;50.822;4.376;2023-02-24T11:24:16;7.90;99.90
23827;DHT22;12094;50.822;4.376;2023-02-24T11:26:50;8.40;99.90
23827;DHT22;12094;50.822;4.376;2023-02-24T11:32:38;8.50;99.90
23827;DHT22;12094;50.822;4.376;2023-02-24T11:35:22;8.60;99.90
23827;DHT22;12094;50.822;4.376;2023-02-24T11:41:24;9.40;99.90
23827;DHT22;12094;50.822;4.376;2023-02-24T11:47:00;10.20;99.90
23827;DHT22;12094;50.822;4.376;2023-02-24T11:49:42;10.00;99.90
23827;DHT22;12094;50.822;4.376;2023-02-24T11:52:19;9.50;99.90
23827;DHT22;12094;50.822;4.376;2023-02-24T11:54:52;9.60;99.90
23827;DHT22;12094;50.822;4.376;2023-02-24T11:57:34;9.50;99.90
23827;DHT22;12094;50.822;4.376;2023-02-24T12:03:15;9.00;99.90
23827;DHT22;12094;50.822;4.376;2023-02-24T12:05:49;8.80;99.90
23827;DHT22;12094;50.822;4.376;2023-02-24T12:08:35;8.40;99.90
23827;DHT22;12094;50.822;4.376;2023-02-24T12:11:11;8.40;99.90
23827;DHT22;12094;50.822;4.376;2023-02-24T12:13:58;8.80;99.90
23827;DHT22;12094;50.822;4.376;2023-02-24T12:16:41;9.00;99.90
23827;DHT22;12094;50.822;4.376;2023-02-24T12:19:40;9.10;99.90
23827;DHT22;12094;50.822;4.376;2023-02-24T12:22:16;9.30;99.90
23827;DHT22;12094;50.822;4.376;2023-02-24T12:25:10;9.50;99.90
23827;DHT22;12094;50.822;4.376;2023-02-24T12:58:29;9.50;99.90
23827;DHT22;12094;50.822;4.376;2023-02-24T13:01:12;9.70;99.90
23827;DHT22;12094;50.822;4.376;2023-02-24T13:15:05;9.80;99.90
23827;DHT22;12094;50.822;4.376;2023-02-24T13:17:32;9.90;99.90
23827;DHT22;12094;50.822;4.376;2023-02-24T13:20:09;9.70;99.90
23827;DHT22;12094;50.822;4.376;2023-02-24T13:22:40;9.70;99.90
23827;DHT22;12094;50.822;4.376;2023-02-24T13:27:55;9.60;99.90
23827;DHT22;12094;50.822;4.376;2023-02-24T13:30:27;9.40;99.90
23827;DHT22;12094;50.822;4.376;2023-02-24T13:35:51;9.20;99.90
23827;DHT22;12094;50.822;4.376;2023-02-24T13:38:45;9.10;99.90
23827;DHT22;12094;50.822;4.376;2023-02-24T14:00:30;9.20;99.90
23827;DHT22;12094;50.822;4.376;2023-02-24T14:17:37;8.60;99.90
23827;DHT22;12094;50.822;4.376;2023-02-24T14:20:23;8.50;99.90
23827;DHT22;12094;50.822;4.376;2023-02-24T14:22:58;8.60;99.90
23827;DHT22;12094;50.822;4.376;2023-02-24T14:25:32;8.60;99.90
23827;DHT22;12094;50.822;4.376;2023-02-24T14:28:01;8.50;99.90
23827;DHT22;12094;50.822;4.376;2023-02-24T14:30:35;8.60;99.90
23827;DHT22;12094;50.822;4.376;2023-02-24T14:33:07;8.60;99.90
23827;DHT22;12094;50.822;4.376;2023-02-24T14:35:47;8.50;99.90
23827;DHT22;12094;50.822;4.376;2023-02-24T14:38:36;8.40;99.90
23827;DHT22;12094;50.822;4.376;2023-02-24T14:41:15;8.30;99.90
23827;DHT22;12094;50.822;4.376;2023-02-24T14:43:44;8.20;99.90
23827;DHT22;12094;50.822;4.376;2023-02-24T14:46:16;7.90;99.90
23827;DHT22;12094;50.822;4.376;2023-02-24T14:48:44;7.80;99.90
23827;DHT22;12094;50.822;4.376;2023-02-24T14:51:26;7.70;99.90
23827;DHT22;12094;50.822;4.376;2023-02-24T14:53:59;7.80;99.90
23827;DHT22;12094;50.822;4.376;2023-02-24T14:56:30;7.80;99.90
23827;DHT22;12094;50.822;4.376;2023-02-24T14:59:24;7.90;99.90
23827;DHT22;12094;50.822;4.376;2023-02-24T15:01:55;7.80;99.90
23827;DHT22;12094;50.822;4.376;2023-02-24T15:07:00;7.80;99.90
23827;DHT22;12094;50.822;4.376;2023-02-24T15:09:39;7.70;99.90
23827;DHT22;12094;50.822;4.376;2023-02-24T15:12:29;7.60;99.90
23827;DHT22;12094;50.822;4.376;2023-02-24T15:15:06;7.60;99.90
23827;DHT22;12094;50.822;4.376;2023-02-24T15:17:39;7.60;99.90
23827;DHT22;12094;50.822;4.376;2023-02-24T15:20:43;7.50;99.90
23827;DHT22;12094;50.822;4.376;2023-02-24T15:23:45;7.60;99.90
23827;DHT22;12094;50.822;4.376;2023-02-24T15:26:28;7.50;99.90
23827;DHT22;12094;50.822;4.376;2023-02-24T15:28:57;7.60;99.90
23827;DHT22;12094;50.822;4.376;2023-02-24T15:31:28;7.60;99.90
23827;DHT22;12094;50.822;4.376;2023-02-24T15:33:59;7.60;99.90
23827;DHT22;12094;50.822;4.376;2023-02-24T15:36:34;7.60;99.90
23827;DHT22;12094;50.822;4.376;2023-02-24T15:39:07;7.50;99.90
23827;DHT22;12094;50.822;4.376;2023-02-24T15:41:45;7.60;99.90
23827;DHT22;12094;50.822;4.376;2023-02-24T15:44:31;7.60;99.90
23827;DHT22;12094;50.822;4.376;2023-02-24T15:47:00;7.50;99.90
23827;DHT22;12094;50.822;4.376;2023-02-24T15:49:37;7.60;99.90
23827;DHT22;12094;50.822;4.376;2023-02-24T15:52:18;7.70;99.90
23827;DHT22;12094;50.822;4.376;2023-02-24T15:54:47;7.60;99.90
23827;DHT22;12094;50.822;4.376;2023-02-24T15:57:15;7.60;99.90
23827;DHT22;12094;50.822;4.376;2023-02-24T15:59:46;7.60;99.90
23827;DHT22;12094;50.822;4.376;2023-02-24T16:02:19;7.80;99.90
23827;DHT22;12094;50.822;4.376;2023-02-24T16:04:48;7.90;99.90
23827;DHT22;12094;50.822;4.376;2023-02-24T16:07:19;8.00;99.90
23827;DHT22;12094;50.822;4.376;2023-02-24T16:09:49;8.00;99.90
23827;DHT22;12094;50.822;4.376;2023-02-24T16:12:21;8.20;99.90
23827;DHT22;12094;50.822;4.376;2023-02-24T16:14:50;8.20;99.90
23827;DHT22;12094;50.822;4.376;2023-02-24T16:17:36;8.20;99.90
23827;DHT22;12094;50.822;4.376;2023-02-24T16:20:25;8.30;99.90
23827;DHT22;12094;50.822;4.376;2023-02-24T16:22:54;8.40;99.90
23827;DHT22;12094;50.822;4.376;2023-02-24T16:25:22;8.40;99.90
23827;DHT22;12094;50.822;4.376;2023-02-24T16:27:51;8.30;99.90
23827;DHT22;12094;50.822;4.376;2023-02-24T16:30:26;8.40;99.90
23827;DHT22;12094;50.822;4.376;2023-02-24T16:32:59;8.30;99.90
23827;DHT22;12094;50.822;4.376;2023-02-24T16:35:31;8.30;99.90
23827;DHT22;12094;50.822;4.376;2023-02-24T16:37:58;8.30;99.90
23827;DHT22;12094;50.822;4.376;2023-02-24T16:40:28;8.40;99.90
23827;DHT22;12094;50.822;4.376;2023-02-24T16:43:01;8.30;99.90
23827;DHT22;12094;50.822;4.376;2023-02-24T16:45:28;8.40;99.90
23827;DHT22;12094;50.822;4.376;2023-02-24T16:48:00;8.50;99.90
23827;DHT22;12094;50.822;4.376;2023-02-24T16:50:32;8.40;99.90
23827;DHT22;12094;50.822;4.376;2023-02-24T16:53:00;8.30;99.90
23827;DHT22;12094;50.822;4.376;2023-02-24T16:55:27;8.30;99.90
23827;DHT22;12094;50.822;4.376;2023-02-24T16:58:05;8.30;99.90
23827;DHT22;12094;50.822;4.376;2023-02-24T17:00:33;8.40;99.90
23827;DHT22;12094;50.822;4.376;2023-02-24T17:03:04;8.50;99.90
23827;DHT22;12094;50.822;4.376;2023-02-24T17:05:34;8.60;99.90
23827;DHT22;12094;50.822;4.376;2023-02-24T17:08:02;8.50;99.90
23827;DHT22;12094;50.822;4.376;2023-02-24T17:10:30;8.50;99.90
23827;DHT22;12094;50.822;4.376;2023-02-24T17:12:58;8.50;99.90
23827;DHT22;12094;50.822;4.376;2023-02-24T17:15:28;8.50;99.90
23827;DHT22;12094;50.822;4.376;2023-02-24T17:17:57;8.40;99.90
23827;DHT22;12094;50.822;4.376;2023-02-24T17:24:16;8.10;99.90
23827;DHT22;12094;50.822;4.376;2023-02-24T17:26:45;8.00;99.90
23827;DHT22;12094;50.822;4.376;2023-02-24T17:29:13;8.00;99.90
23827;DHT22;12094;50.822;4.376;2023-02-24T17:31:40;8.00;99.90
23827;DHT22;12094;50.822;4.376;2023-02-24T17:34:10;8.00;99.90
23827;DHT22;12094;50.822;4.376;2023-02-24T17:36:38;8.00;99.90
23827;DHT22;12094;50.822;4.376;2023-02-24T17:39:09;8.00;99.90
23827;DHT22;12094;50.822;4.376;2023-02-24T17:41:36;8.00;99.90
23827;DHT22;12094;50.822;4.376;2023-02-24T17:44:03;7.90;99.90
23827;DHT22;12094;50.822;4.376;2023-02-24T17:46:33;7.90;99.90
23827;DHT22;12094;50.822;4.376;2023-02-24T17:49:06;8.00;99.90
23827;DHT22;12094;50.822;4.376;2023-02-24T17:51:37;7.90;99.90
23827;DHT22;12094;50.822;4.376;2023-02-24T17:54:04;7.60;99.90
23827;DHT22;12094;50.822;4.376;2023-02-24T17:56:33;7.40;99.90
23827;DHT22;12094;50.822;4.376;2023-02-24T17:59:00;7.20;99.90
23827;DHT22;12094;50.822;4.376;2023-02-24T18:01:30;7.20;99.90
23827;DHT22;12094;50.822;4.376;2023-02-24T18:04:02;7.20;99.90
23827;DHT22;12094;50.822;4.376;2023-02-24T18:06:34;7.20;99.90
23827;DHT22;12094;50.822;4.376;2023-02-24T18:09:01;7.10;99.90
23827;DHT22;12094;50.822;4.376;2023-02-24T18:11:32;7.10;99.90
23827;DHT22;12094;50.822;4.376;2023-02-24T18:14:01;7.10;99.90
23827;DHT22;12094;50.822;4.376;2023-02-24T18:16:29;7.10;99.90
23827;DHT22;12094;50.822;4.376;2023-02-24T18:18:58;7.10;99.90
23827;DHT22;12094;50.822;4.376;2023-02-24T18:21:25;7.10;99.90
23827;DHT22;12094;50.822;4.376;2023-02-24T18:23:53;7.10;99.90
23827;DHT22;12094;50.822;4.376;2023-02-24T18:26:21;7.10;99.90
23827;DHT22;12094;50.822;4.376;2023-02-24T18:28:55;7.10;99.90
23827;DHT22;12094;50.822;4.376;2023-02-24T18:31:25;7.10;99.90
23827;DHT22;12094;50.822;4.376;2023-02-24T18:33:55;7.10;99.90
23827;DHT22;12094;50.822;4.376;2023-02-24T18:36:34;7.20;99.90
23827;DHT22;12094;50.822;4.376;2023-02-24T18:39:05;7.20;99.90
23827;DHT22;12094;50.822;4.376;2023-02-24T18:41:36;7.30;99.90
23827;DHT22;12094;50.822;4.376;2023-02-24T18:44:07;7.30;99.90
23827;DHT22;12094;50.822;4.376;2023-02-24T18:46:46;7.30;99.90
23827;DHT22;12094;50.822;4.376;2023-02-24T18:49:15;7.30;99.90
23827;DHT22;12094;50.822;4.376;2023-02-24T18:51:46;7.20;99.90
23827;DHT22;12094;50.822;4.376;2023-02-24T18:54:24;7.30;99.90
23827;DHT22;12094;50.822;4.376;2023-02-24T18:56:52;7.30;99.90
23827;DHT22;12094;50.822;4.376;2023-02-24T18:59:23;7.30;99.90
23827;DHT22;12094;50.822;4.376;2023-02-24T19:01:53;7.40;99.90
23827;DHT22;12094;50.822;4.376;2023-02-24T19:04:23;7.50;99.90
23827;DHT22;12094;50.822;4.376;2023-02-24T19:06:56;7.40;99.90
23827;DHT22;12094;50.822;4.376;2023-02-24T19:09:24;7.40;99.90
23827;DHT22;12094;50.822;4.376;2023-02-24T19:12:21;7.40;99.90
23827;DHT22;12094;50.822;4.376;2023-02-24T19:14:51;7.30;99.90
23827;DHT22;12094;50.822;4.376;2023-02-24T19:17:19;7.30;99.90
23827;DHT22;12094;50.822;4.376;2023-02-24T19:19:47;7.30;99.90
23827;DHT22;12094;50.822;4.376;2023-02-24T19:22:15;7.20;99.90